sensor_id;sensor_type;location;lat;lon;timestamp;P1;durP1;ratioP1;P2;durP2;ratioP2
7607;SDS011;3845;48.120;11.534;2022-09-09T00:01:14;2.73;;;1.67;;
7607;SDS011;3845;48.120;11.534;2022-09-09T00:09:23;1.63;;;1.40;;
7607;SDS011;3845;48.120;11.534;2022-09-09T00:14:43;2.03;;;1.47;;
7607;SDS011;3845;48.120;11.534;2022-09-09T00:17:16;1.50;;;1.30;;
7607;SDS011;3845;48.120;11.534;2022-09-09T00:19:47;2.27;;;1.37;;
7607;SDS011;3845;48.120;11.534;2022-09-09T00:22:25;2.63;;;1.30;;
7607;SDS011;3845;48.120;11.534;2022-09-09T00:24:53;1.90;;;1.30;;
7607;SDS011;3845;48.120;11.534;2022-09-09T00:29:54;1.50;;;1.30;;
7607;SDS011;3845;48.120;11.534;2022-09-09T00:32:22;2.23;;;1.50;;
7607;SDS011;3845;48.120;11.534;2022-09-09T00:34:54;1.47;;;1.30;;
7607;SDS011;3845;48.120;11.534;2022-09-09T00:37:22;2.73;;;1.20;;
7607;SDS011;3845;48.120;11.534;2022-09-09T00:39:50;1.23;;;1.13;;
7607;SDS011;3845;48.120;11.534;2022-09-09T00:42:27;3.93;;;1.30;;
7607;SDS011;3845;48.120;11.534;2022-09-09T00:45:10;1.97;;;1.50;;
7607;SDS011;3845;48.120;11.534;2022-09-09T00:55:36;1.73;;;1.53;;
7607;SDS011;3845;48.120;11.534;2022-09-09T00:58:07;2.10;;;1.40;;
7607;SDS011;3845;48.120;11.534;2022-09-09T01:01:08;1.60;;;1.33;;
7607;SDS011;3845;48.120;11.534;2022-09-09T01:03:37;2.47;;;1.50;;
7607;SDS011;3845;48.120;11.534;2022-09-09T01:08:50;3.00;;;1.47;;
7607;SDS011;3845;48.120;11.534;2022-09-09T01:11:43;1.37;;;1.20;;
7607;SDS011;3845;48.120;11.534;2022-09-09T01:14:47;1.93;;;1.40;;
7607;SDS011;3845;48.120;11.534;2022-09-09T01:19:55;1.83;;;1.47;;
7607;SDS011;3845;48.120;11.534;2022-09-09T01:27:50;3.47;;;1.50;;
7607;SDS011;3845;48.120;11.534;2022-09-09T01:30:19;1.87;;;1.50;;
7607;SDS011;3845;48.120;11.534;2022-09-09T01:32:48;3.00;;;1.70;;
7607;SDS011;3845;48.120;11.534;2022-09-09T01:36:02;1.97;;;1.63;;
7607;SDS011;3845;48.120;11.534;2022-09-09T01:38:19;2.30;;;1.60;;
7607;SDS011;3845;48.120;11.534;2022-09-09T01:40:45;2.07;;;1.60;;
7607;SDS011;3845;48.120;11.534;2022-09-09T01:43:11;2.80;;;1.60;;
7607;SDS011;3845;48.120;11.534;2022-09-09T01:45:36;2.40;;;1.70;;
7607;SDS011;3845;48.120;11.534;2022-09-09T01:48:02;3.00;;;1.60;;
7607;SDS011;3845;48.120;11.534;2022-09-09T01:50:28;2.00;;;1.50;;
7607;SDS011;3845;48.120;11.534;2022-09-09T01:52:55;2.67;;;1.83;;
7607;SDS011;3845;48.120;11.534;2022-09-09T01:55:40;2.20;;;1.77;;
7607;SDS011;3845;48.120;11.534;2022-09-09T02:03:53;2.97;;;1.90;;
7607;SDS011;3845;48.120;11.534;2022-09-09T02:06:35;2.03;;;1.50;;
7607;SDS011;3845;48.120;11.534;2022-09-09T02:09:06;2.40;;;1.60;;
7607;SDS011;3845;48.120;11.534;2022-09-09T02:11:33;2.00;;;1.50;;
7607;SDS011;3845;48.120;11.534;2022-09-09T02:14:10;2.63;;;1.50;;
7607;SDS011;3845;48.120;11.534;2022-09-09T02:16:39;2.57;;;1.40;;
7607;SDS011;3845;48.120;11.534;2022-09-09T02:21:52;1.70;;;1.40;;
7607;SDS011;3845;48.120;11.534;2022-09-09T02:24:20;3.27;;;1.57;;
7607;SDS011;3845;48.120;11.534;2022-09-09T02:26:46;2.17;;;1.57;;
7607;SDS011;3845;48.120;11.534;2022-09-09T02:29:15;2.53;;;1.30;;
7607;SDS011;3845;48.120;11.534;2022-09-09T02:31:44;3.10;;;1.60;;
7607;SDS011;3845;48.120;11.534;2022-09-09T02:34:10;2.07;;;1.50;;
7607;SDS011;3845;48.120;11.534;2022-09-09T02:36:37;1.97;;;1.40;;
7607;SDS011;3845;48.120;11.534;2022-09-09T02:39:05;1.77;;;1.20;;
7607;SDS011;3845;48.120;11.534;2022-09-09T02:41:33;1.77;;;1.37;;
7607;SDS011;3845;48.120;11.534;2022-09-09T02:43:59;1.70;;;1.30;;
7607;SDS011;3845;48.120;11.534;2022-09-09T02:46:43;2.17;;;1.30;;
7607;SDS011;3845;48.120;11.534;2022-09-09T02:49:55;1.77;;;1.23;;
7607;SDS011;3845;48.120;11.534;2022-09-09T02:55:11;1.30;;;1.20;;
7607;SDS011;3845;48.120;11.534;2022-09-09T02:57:46;1.63;;;1.40;;
7607;SDS011;3845;48.120;11.534;2022-09-09T03:00:12;1.80;;;1.20;;
7607;SDS011;3845;48.120;11.534;2022-09-09T03:02:38;1.77;;;1.50;;
7607;SDS011;3845;48.120;11.534;2022-09-09T03:05:04;2.50;;;1.27;;
7607;SDS011;3845;48.120;11.534;2022-09-09T03:07:30;1.43;;;1.20;;
7607;SDS011;3845;48.120;11.534;2022-09-09T03:09:55;1.60;;;1.30;;
7607;SDS011;3845;48.120;11.534;2022-09-09T03:12:21;1.77;;;1.30;;
7607;SDS011;3845;48.120;11.534;2022-09-09T03:14:46;1.70;;;1.20;;
7607;SDS011;3845;48.120;11.534;2022-09-09T03:17:11;1.70;;;1.10;;
7607;SDS011;3845;48.120;11.534;2022-09-09T03:19:37;3.17;;;1.27;;
7607;SDS011;3845;48.120;11.534;2022-09-09T03:22:03;1.63;;;1.20;;
7607;SDS011;3845;48.120;11.534;2022-09-09T03:24:29;2.33;;;1.20;;
7607;SDS011;3845;48.120;11.534;2022-09-09T03:26:54;1.67;;;1.10;;
7607;SDS011;3845;48.120;11.534;2022-09-09T03:29:20;1.30;;;1.20;;
7607;SDS011;3845;48.120;11.534;2022-09-09T03:31:46;3.17;;;1.30;;
7607;SDS011;3845;48.120;11.534;2022-09-09T03:34:11;2.13;;;1.30;;
7607;SDS011;3845;48.120;11.534;2022-09-09T03:36:38;3.17;;;1.40;;
7607;SDS011;3845;48.120;11.534;2022-09-09T03:39:04;1.40;;;1.30;;
7607;SDS011;3845;48.120;11.534;2022-09-09T03:41:30;1.50;;;1.40;;
7607;SDS011;3845;48.120;11.534;2022-09-09T03:43:55;2.70;;;1.30;;
7607;SDS011;3845;48.120;11.534;2022-09-09T03:46:21;1.30;;;1.20;;
7607;SDS011;3845;48.120;11.534;2022-09-09T03:48:48;1.90;;;1.20;;
7607;SDS011;3845;48.120;11.534;2022-09-09T03:51:14;1.80;;;1.30;;
7607;SDS011;3845;48.120;11.534;2022-09-09T03:53:40;1.40;;;1.30;;
7607;SDS011;3845;48.120;11.534;2022-09-09T03:56:06;2.07;;;1.30;;
7607;SDS011;3845;48.120;11.534;2022-09-09T03:58:32;1.23;;;1.10;;
7607;SDS011;3845;48.120;11.534;2022-09-09T04:01:03;1.40;;;1.30;;
7607;SDS011;3845;48.120;11.534;2022-09-09T04:03:30;1.43;;;1.30;;
7607;SDS011;3845;48.120;11.534;2022-09-09T04:05:57;1.30;;;1.20;;
7607;SDS011;3845;48.120;11.534;2022-09-09T04:08:23;1.30;;;1.20;;
7607;SDS011;3845;48.120;11.534;2022-09-09T04:10:52;1.20;;;1.10;;
7607;SDS011;3845;48.120;11.534;2022-09-09T04:13:18;1.90;;;1.30;;
7607;SDS011;3845;48.120;11.534;2022-09-09T04:15:50;2.80;;;1.30;;
7607;SDS011;3845;48.120;11.534;2022-09-09T04:18:19;3.13;;;1.30;;
7607;SDS011;3845;48.120;11.534;2022-09-09T04:20:48;1.40;;;1.20;;
7607;SDS011;3845;48.120;11.534;2022-09-09T04:23:15;1.50;;;1.30;;
7607;SDS011;3845;48.120;11.534;2022-09-09T04:25:44;1.40;;;1.20;;
7607;SDS011;3845;48.120;11.534;2022-09-09T04:28:11;1.43;;;1.20;;
7607;SDS011;3845;48.120;11.534;2022-09-09T04:30:37;1.57;;;1.23;;
7607;SDS011;3845;48.120;11.534;2022-09-09T04:33:04;2.23;;;1.70;;
7607;SDS011;3845;48.120;11.534;2022-09-09T04:35:30;3.03;;;1.80;;
7607;SDS011;3845;48.120;11.534;2022-09-09T04:37:56;2.27;;;1.80;;
7607;SDS011;3845;48.120;11.534;2022-09-09T04:40:21;1.93;;;1.60;;
7607;SDS011;3845;48.120;11.534;2022-09-09T04:42:47;1.77;;;1.50;;
7607;SDS011;3845;48.120;11.534;2022-09-09T04:45:15;2.00;;;1.43;;
7607;SDS011;3845;48.120;11.534;2022-09-09T04:47:40;2.10;;;1.40;;
7607;SDS011;3845;48.120;11.534;2022-09-09T04:50:06;2.87;;;1.47;;
7607;SDS011;3845;48.120;11.534;2022-09-09T04:52:33;1.50;;;1.40;;
7607;SDS011;3845;48.120;11.534;2022-09-09T04:55:02;2.87;;;1.60;;
7607;SDS011;3845;48.120;11.534;2022-09-09T04:57:27;2.07;;;1.67;;
7607;SDS011;3845;48.120;11.534;2022-09-09T04:59:53;2.20;;;1.60;;
7607;SDS011;3845;48.120;11.534;2022-09-09T05:02:19;1.87;;;1.63;;
7607;SDS011;3845;48.120;11.534;2022-09-09T05:04:44;1.73;;;1.50;;
7607;SDS011;3845;48.120;11.534;2022-09-09T05:07:09;2.37;;;1.70;;
7607;SDS011;3845;48.120;11.534;2022-09-09T05:09:35;1.90;;;1.40;;
7607;SDS011;3845;48.120;11.534;2022-09-09T05:12:00;2.07;;;1.60;;
7607;SDS011;3845;48.120;11.534;2022-09-09T05:14:27;1.73;;;1.43;;
7607;SDS011;3845;48.120;11.534;2022-09-09T05:16:52;2.20;;;1.60;;
7607;SDS011;3845;48.120;11.534;2022-09-09T05:19:18;2.10;;;1.60;;
7607;SDS011;3845;48.120;11.534;2022-09-09T05:21:44;2.03;;;1.50;;
7607;SDS011;3845;48.120;11.534;2022-09-09T05:24:10;1.67;;;1.50;;
7607;SDS011;3845;48.120;11.534;2022-09-09T05:26:35;1.90;;;1.60;;
7607;SDS011;3845;48.120;11.534;2022-09-09T05:29:01;1.70;;;1.50;;
7607;SDS011;3845;48.120;11.534;2022-09-09T05:31:26;1.73;;;1.57;;
7607;SDS011;3845;48.120;11.534;2022-09-09T05:33:53;2.87;;;1.50;;
7607;SDS011;3845;48.120;11.534;2022-09-09T05:36:19;2.03;;;1.50;;
7607;SDS011;3845;48.120;11.534;2022-09-09T05:38:46;1.80;;;1.60;;
7607;SDS011;3845;48.120;11.534;2022-09-09T05:41:12;3.47;;;1.57;;
7607;SDS011;3845;48.120;11.534;2022-09-09T05:43:40;2.60;;;1.53;;
7607;SDS011;3845;48.120;11.534;2022-09-09T05:46:08;2.23;;;1.70;;
7607;SDS011;3845;48.120;11.534;2022-09-09T05:48:35;2.00;;;1.50;;
7607;SDS011;3845;48.120;11.534;2022-09-09T05:51:02;1.40;;;1.30;;
7607;SDS011;3845;48.120;11.534;2022-09-09T05:53:28;2.03;;;1.43;;
7607;SDS011;3845;48.120;11.534;2022-09-09T05:56:01;2.10;;;1.50;;
7607;SDS011;3845;48.120;11.534;2022-09-09T05:58:28;1.53;;;1.40;;
7607;SDS011;3845;48.120;11.534;2022-09-09T06:01:16;3.30;;;1.70;;
7607;SDS011;3845;48.120;11.534;2022-09-09T06:03:44;1.87;;;1.60;;
7607;SDS011;3845;48.120;11.534;2022-09-09T06:06:11;2.43;;;1.60;;
7607;SDS011;3845;48.120;11.534;2022-09-09T06:08:39;2.13;;;1.50;;
7607;SDS011;3845;48.120;11.534;2022-09-09T06:11:07;2.97;;;1.50;;
7607;SDS011;3845;48.120;11.534;2022-09-09T06:13:34;3.97;;;2.70;;
7607;SDS011;3845;48.120;11.534;2022-09-09T06:16:02;2.90;;;2.23;;
7607;SDS011;3845;48.120;11.534;2022-09-09T06:18:27;2.50;;;1.87;;
7607;SDS011;3845;48.120;11.534;2022-09-09T06:20:53;2.57;;;1.93;;
7607;SDS011;3845;48.120;11.534;2022-09-09T06:23:22;2.43;;;1.63;;
7607;SDS011;3845;48.120;11.534;2022-09-09T06:25:48;1.90;;;1.67;;
7607;SDS011;3845;48.120;11.534;2022-09-09T06:28:14;3.90;;;1.60;;
7607;SDS011;3845;48.120;11.534;2022-09-09T06:30:40;1.53;;;1.33;;
7607;SDS011;3845;48.120;11.534;2022-09-09T06:33:06;3.57;;;1.50;;
7607;SDS011;3845;48.120;11.534;2022-09-09T06:35:31;6.83;;;4.70;;
7607;SDS011;3845;48.120;11.534;2022-09-09T06:37:56;4.50;;;3.73;;
7607;SDS011;3845;48.120;11.534;2022-09-09T06:40:23;3.30;;;2.90;;
7607;SDS011;3845;48.120;11.534;2022-09-09T06:42:49;3.57;;;3.00;;
7607;SDS011;3845;48.120;11.534;2022-09-09T06:45:14;5.53;;;2.70;;
7607;SDS011;3845;48.120;11.534;2022-09-09T06:47:39;2.77;;;2.47;;
7607;SDS011;3845;48.120;11.534;2022-09-09T06:50:06;2.00;;;1.70;;
7607;SDS011;3845;48.120;11.534;2022-09-09T06:52:32;2.40;;;1.90;;
7607;SDS011;3845;48.120;11.534;2022-09-09T06:54:58;3.50;;;1.70;;
7607;SDS011;3845;48.120;11.534;2022-09-09T06:57:23;1.93;;;1.40;;
7607;SDS011;3845;48.120;11.534;2022-09-09T06:59:49;4.67;;;2.60;;
7607;SDS011;3845;48.120;11.534;2022-09-09T07:02:14;4.07;;;2.10;;
7607;SDS011;3845;48.120;11.534;2022-09-09T07:04:40;2.40;;;1.70;;
7607;SDS011;3845;48.120;11.534;2022-09-09T07:07:05;2.97;;;1.63;;
7607;SDS011;3845;48.120;11.534;2022-09-09T07:09:30;1.63;;;1.40;;
7607;SDS011;3845;48.120;11.534;2022-09-09T07:11:56;2.10;;;1.57;;
7607;SDS011;3845;48.120;11.534;2022-09-09T07:14:24;2.27;;;1.53;;
7607;SDS011;3845;48.120;11.534;2022-09-09T07:16:49;2.60;;;1.37;;
7607;SDS011;3845;48.120;11.534;2022-09-09T07:19:14;1.60;;;1.30;;
7607;SDS011;3845;48.120;11.534;2022-09-09T07:21:40;2.90;;;1.60;;
7607;SDS011;3845;48.120;11.534;2022-09-09T07:24:05;3.37;;;1.40;;
7607;SDS011;3845;48.120;11.534;2022-09-09T07:26:34;3.20;;;1.50;;
7607;SDS011;3845;48.120;11.534;2022-09-09T07:29:00;2.60;;;1.40;;
7607;SDS011;3845;48.120;11.534;2022-09-09T07:31:27;1.37;;;1.20;;
7607;SDS011;3845;48.120;11.534;2022-09-09T07:33:55;1.73;;;1.30;;
7607;SDS011;3845;48.120;11.534;2022-09-09T07:36:22;2.40;;;1.40;;
7607;SDS011;3845;48.120;11.534;2022-09-09T07:38:50;2.20;;;1.30;;
7607;SDS011;3845;48.120;11.534;2022-09-09T07:41:24;3.13;;;2.17;;
7607;SDS011;3845;48.120;11.534;2022-09-09T07:44:17;5.07;;;1.70;;
7607;SDS011;3845;48.120;11.534;2022-09-09T07:46:44;8.27;;;7.37;;
7607;SDS011;3845;48.120;11.534;2022-09-09T07:49:10;8.73;;;6.67;;
7607;SDS011;3845;48.120;11.534;2022-09-09T07:51:37;7.93;;;7.13;;
7607;SDS011;3845;48.120;11.534;2022-09-09T07:54:04;5.17;;;4.20;;
7607;SDS011;3845;48.120;11.534;2022-09-09T07:56:32;3.53;;;2.20;;
7607;SDS011;3845;48.120;11.534;2022-09-09T07:58:57;3.37;;;2.40;;
7607;SDS011;3845;48.120;11.534;2022-09-09T08:01:25;3.57;;;2.67;;
7607;SDS011;3845;48.120;11.534;2022-09-09T08:03:56;2.97;;;2.27;;
7607;SDS011;3845;48.120;11.534;2022-09-09T08:06:29;2.60;;;1.90;;
7607;SDS011;3845;48.120;11.534;2022-09-09T08:08:57;2.37;;;1.77;;
7607;SDS011;3845;48.120;11.534;2022-09-09T08:11:23;2.57;;;1.50;;
7607;SDS011;3845;48.120;11.534;2022-09-09T08:13:50;1.93;;;1.40;;
7607;SDS011;3845;48.120;11.534;2022-09-09T08:16:17;1.50;;;1.30;;
7607;SDS011;3845;48.120;11.534;2022-09-09T08:18:46;1.63;;;1.20;;
7607;SDS011;3845;48.120;11.534;2022-09-09T08:21:13;2.80;;;1.60;;
7607;SDS011;3845;48.120;11.534;2022-09-09T08:23:42;4.23;;;3.60;;
7607;SDS011;3845;48.120;11.534;2022-09-09T08:28:37;2.90;;;2.30;;
7607;SDS011;3845;48.120;11.534;2022-09-09T08:31:07;3.23;;;2.00;;
7607;SDS011;3845;48.120;11.534;2022-09-09T08:33:34;7.43;;;6.37;;
7607;SDS011;3845;48.120;11.534;2022-09-09T08:36:01;3.60;;;3.07;;
7607;SDS011;3845;48.120;11.534;2022-09-09T08:38:26;3.37;;;2.93;;
7607;SDS011;3845;48.120;11.534;2022-09-09T08:40:52;2.50;;;2.30;;
7607;SDS011;3845;48.120;11.534;2022-09-09T08:43:24;3.17;;;2.00;;
7607;SDS011;3845;48.120;11.534;2022-09-09T08:51:10;3.60;;;2.03;;
7607;SDS011;3845;48.120;11.534;2022-09-09T08:53:47;2.07;;;1.70;;
7607;SDS011;3845;48.120;11.534;2022-09-09T08:56:14;4.57;;;2.10;;
7607;SDS011;3845;48.120;11.534;2022-09-09T08:58:47;2.50;;;2.00;;
7607;SDS011;3845;48.120;11.534;2022-09-09T09:04:07;2.10;;;1.90;;
7607;SDS011;3845;48.120;11.534;2022-09-09T09:09:12;2.67;;;1.70;;
7607;SDS011;3845;48.120;11.534;2022-09-09T09:14:34;1.87;;;1.57;;
7607;SDS011;3845;48.120;11.534;2022-09-09T09:19:30;2.27;;;1.43;;
7607;SDS011;3845;48.120;11.534;2022-09-09T09:24:45;2.07;;;1.40;;
7607;SDS011;3845;48.120;11.534;2022-09-09T09:27:33;2.30;;;1.40;;
7607;SDS011;3845;48.120;11.534;2022-09-09T09:30:01;3.00;;;1.20;;
7607;SDS011;3845;48.120;11.534;2022-09-09T09:32:31;1.40;;;1.30;;
7607;SDS011;3845;48.120;11.534;2022-09-09T09:34:58;2.93;;;2.07;;
7607;SDS011;3845;48.120;11.534;2022-09-09T09:37:34;2.27;;;2.00;;
7607;SDS011;3845;48.120;11.534;2022-09-09T09:40:10;3.50;;;2.37;;
7607;SDS011;3845;48.120;11.534;2022-09-09T09:42:36;2.40;;;1.70;;
7607;SDS011;3845;48.120;11.534;2022-09-09T09:45:16;2.03;;;1.80;;
7607;SDS011;3845;48.120;11.534;2022-09-09T09:47:45;2.10;;;1.67;;
7607;SDS011;3845;48.120;11.534;2022-09-09T09:50:17;1.80;;;1.47;;
7607;SDS011;3845;48.120;11.534;2022-09-09T09:52:51;3.30;;;1.67;;
7607;SDS011;3845;48.120;11.534;2022-09-09T09:55:18;1.93;;;1.70;;
7607;SDS011;3845;48.120;11.534;2022-09-09T09:57:44;3.13;;;1.60;;
7607;SDS011;3845;48.120;11.534;2022-09-09T10:00:14;4.50;;;3.80;;
7607;SDS011;3845;48.120;11.534;2022-09-09T10:02:45;6.57;;;4.97;;
7607;SDS011;3845;48.120;11.534;2022-09-09T10:07:41;15.40;;;13.63;;
7607;SDS011;3845;48.120;11.534;2022-09-09T10:10:13;10.33;;;9.23;;
7607;SDS011;3845;48.120;11.534;2022-09-09T10:12:48;8.30;;;7.47;;
7607;SDS011;3845;48.120;11.534;2022-09-09T10:28:33;3.50;;;3.20;;
7607;SDS011;3845;48.120;11.534;2022-09-09T10:40:05;2.60;;;1.73;;
7607;SDS011;3845;48.120;11.534;2022-09-09T10:42:40;1.70;;;1.40;;
7607;SDS011;3845;48.120;11.534;2022-09-09T10:45:15;1.47;;;1.30;;
7607;SDS011;3845;48.120;11.534;2022-09-09T10:48:28;1.40;;;1.30;;
7607;SDS011;3845;48.120;11.534;2022-09-09T10:53:46;1.20;;;1.10;;
7607;SDS011;3845;48.120;11.534;2022-09-09T10:56:28;1.83;;;1.30;;
7607;SDS011;3845;48.120;11.534;2022-09-09T10:58:56;2.47;;;1.40;;
7607;SDS011;3845;48.120;11.534;2022-09-09T11:01:25;1.60;;;1.40;;
7607;SDS011;3845;48.120;11.534;2022-09-09T11:03:57;1.73;;;1.20;;
7607;SDS011;3845;48.120;11.534;2022-09-09T11:06:28;3.40;;;2.60;;
7607;SDS011;3845;48.120;11.534;2022-09-09T11:08:57;4.43;;;3.93;;
7607;SDS011;3845;48.120;11.534;2022-09-09T11:11:30;5.57;;;3.37;;
7607;SDS011;3845;48.120;11.534;2022-09-09T11:16:53;2.43;;;1.70;;
7607;SDS011;3845;48.120;11.534;2022-09-09T11:22:04;2.43;;;1.40;;
7607;SDS011;3845;48.120;11.534;2022-09-09T11:24:51;1.77;;;1.53;;
7607;SDS011;3845;48.120;11.534;2022-09-09T11:30:18;2.40;;;2.07;;
7607;SDS011;3845;48.120;11.534;2022-09-09T11:33:00;3.37;;;2.00;;
7607;SDS011;3845;48.120;11.534;2022-09-09T11:38:45;1.70;;;1.50;;
7607;SDS011;3845;48.120;11.534;2022-09-09T11:41:12;1.73;;;1.23;;
7607;SDS011;3845;48.120;11.534;2022-09-09T11:46:04;3.23;;;1.40;;
7607;SDS011;3845;48.120;11.534;2022-09-09T11:51:04;2.30;;;2.10;;
7607;SDS011;3845;48.120;11.534;2022-09-09T11:53:53;2.40;;;1.60;;
7607;SDS011;3845;48.120;11.534;2022-09-09T11:56:41;2.00;;;1.77;;
7607;SDS011;3845;48.120;11.534;2022-09-09T11:59:31;2.73;;;1.80;;
7607;SDS011;3845;48.120;11.534;2022-09-09T12:02:01;1.67;;;1.40;;
7607;SDS011;3845;48.120;11.534;2022-09-09T12:04:28;1.87;;;1.50;;
7607;SDS011;3845;48.120;11.534;2022-09-09T12:07:21;2.93;;;1.67;;
7607;SDS011;3845;48.120;11.534;2022-09-09T12:09:58;1.73;;;1.63;;
7607;SDS011;3845;48.120;11.534;2022-09-09T12:12:28;1.90;;;1.57;;
7607;SDS011;3845;48.120;11.534;2022-09-09T12:15:00;1.43;;;1.30;;
7607;SDS011;3845;48.120;11.534;2022-09-09T12:17:29;1.60;;;1.40;;
7607;SDS011;3845;48.120;11.534;2022-09-09T12:22:48;1.30;;;1.20;;
7607;SDS011;3845;48.120;11.534;2022-09-09T12:25:37;1.77;;;1.23;;
7607;SDS011;3845;48.120;11.534;2022-09-09T12:28:11;1.87;;;1.20;;
7607;SDS011;3845;48.120;11.534;2022-09-09T12:30:52;1.37;;;1.10;;
7607;SDS011;3845;48.120;11.534;2022-09-09T12:33:19;1.40;;;1.13;;
7607;SDS011;3845;48.120;11.534;2022-09-09T12:35:49;1.97;;;0.93;;
7607;SDS011;3845;48.120;11.534;2022-09-09T12:38:23;1.57;;;1.10;;
7607;SDS011;3845;48.120;11.534;2022-09-09T12:40:56;1.20;;;1.10;;
7607;SDS011;3845;48.120;11.534;2022-09-09T12:43:23;3.97;;;2.90;;
7607;SDS011;3845;48.120;11.534;2022-09-09T12:45:50;2.60;;;2.40;;
7607;SDS011;3845;48.120;11.534;2022-09-09T12:48:22;2.30;;;2.10;;
7607;SDS011;3845;48.120;11.534;2022-09-09T12:50:52;2.10;;;1.90;;
7607;SDS011;3845;48.120;11.534;2022-09-09T12:53:33;1.90;;;1.63;;
7607;SDS011;3845;48.120;11.534;2022-09-09T12:58:33;1.90;;;1.67;;
7607;SDS011;3845;48.120;11.534;2022-09-09T13:00:59;1.90;;;1.70;;
7607;SDS011;3845;48.120;11.534;2022-09-09T13:03:26;2.53;;;1.63;;
7607;SDS011;3845;48.120;11.534;2022-09-09T13:05:52;2.10;;;1.60;;
7607;SDS011;3845;48.120;11.534;2022-09-09T13:08:19;2.80;;;1.90;;
7607;SDS011;3845;48.120;11.534;2022-09-09T13:10:51;3.90;;;2.67;;
7607;SDS011;3845;48.120;11.534;2022-09-09T13:13:22;2.80;;;1.90;;
7607;SDS011;3845;48.120;11.534;2022-09-09T13:15:55;1.97;;;1.60;;
7607;SDS011;3845;48.120;11.534;2022-09-09T13:18:23;1.90;;;1.47;;
7607;SDS011;3845;48.120;11.534;2022-09-09T13:20:50;1.67;;;1.03;;
7607;SDS011;3845;48.120;11.534;2022-09-09T13:23:16;1.73;;;1.30;;
7607;SDS011;3845;48.120;11.534;2022-09-09T13:25:52;2.33;;;1.30;;
7607;SDS011;3845;48.120;11.534;2022-09-09T13:28:20;1.57;;;1.20;;
7607;SDS011;3845;48.120;11.534;2022-09-09T13:30:55;1.33;;;0.90;;
7607;SDS011;3845;48.120;11.534;2022-09-09T13:33:29;1.17;;;0.83;;
7607;SDS011;3845;48.120;11.534;2022-09-09T13:38:32;0.80;;;0.80;;
7607;SDS011;3845;48.120;11.534;2022-09-09T13:41:02;1.20;;;0.90;;
7607;SDS011;3845;48.120;11.534;2022-09-09T13:46:29;3.30;;;2.50;;
7607;SDS011;3845;48.120;11.534;2022-09-09T13:48:58;1.93;;;1.50;;
7607;SDS011;3845;48.120;11.534;2022-09-09T13:51:36;1.80;;;1.10;;
7607;SDS011;3845;48.120;11.534;2022-09-09T13:54:02;1.53;;;0.87;;
7607;SDS011;3845;48.120;11.534;2022-09-09T13:56:32;2.43;;;2.10;;
7607;SDS011;3845;48.120;11.534;2022-09-09T13:59:01;2.90;;;2.10;;
7607;SDS011;3845;48.120;11.534;2022-09-09T14:01:27;4.00;;;1.40;;
7607;SDS011;3845;48.120;11.534;2022-09-09T14:03:53;1.60;;;1.20;;
7607;SDS011;3845;48.120;11.534;2022-09-09T14:06:19;1.57;;;1.10;;
7607;SDS011;3845;48.120;11.534;2022-09-09T14:08:46;2.33;;;1.30;;
7607;SDS011;3845;48.120;11.534;2022-09-09T14:11:12;1.50;;;1.30;;
7607;SDS011;3845;48.120;11.534;2022-09-09T14:13:38;2.57;;;1.77;;
7607;SDS011;3845;48.120;11.534;2022-09-09T14:16:03;3.40;;;2.77;;
7607;SDS011;3845;48.120;11.534;2022-09-09T14:18:29;5.43;;;4.90;;
7607;SDS011;3845;48.120;11.534;2022-09-09T14:20:54;6.90;;;5.70;;
7607;SDS011;3845;48.120;11.534;2022-09-09T14:23:19;7.57;;;6.77;;
7607;SDS011;3845;48.120;11.534;2022-09-09T14:25:47;6.03;;;4.57;;
7607;SDS011;3845;48.120;11.534;2022-09-09T14:28:14;2.93;;;2.50;;
7607;SDS011;3845;48.120;11.534;2022-09-09T14:30:40;2.27;;;1.63;;
7607;SDS011;3845;48.120;11.534;2022-09-09T14:33:07;1.90;;;1.30;;
7607;SDS011;3845;48.120;11.534;2022-09-09T14:35:33;1.40;;;1.20;;
7607;SDS011;3845;48.120;11.534;2022-09-09T14:37:59;1.70;;;1.30;;
7607;SDS011;3845;48.120;11.534;2022-09-09T14:40:26;2.13;;;1.10;;
7607;SDS011;3845;48.120;11.534;2022-09-09T14:42:52;2.37;;;1.30;;
7607;SDS011;3845;48.120;11.534;2022-09-09T14:45:17;1.60;;;1.10;;
7607;SDS011;3845;48.120;11.534;2022-09-09T14:47:43;3.07;;;1.30;;
7607;SDS011;3845;48.120;11.534;2022-09-09T14:50:08;1.53;;;1.20;;
7607;SDS011;3845;48.120;11.534;2022-09-09T14:52:33;1.77;;;1.20;;
7607;SDS011;3845;48.120;11.534;2022-09-09T14:54:59;2.30;;;1.10;;
7607;SDS011;3845;48.120;11.534;2022-09-09T14:57:24;1.90;;;1.20;;
7607;SDS011;3845;48.120;11.534;2022-09-09T14:59:49;1.43;;;1.07;;
7607;SDS011;3845;48.120;11.534;2022-09-09T15:02:15;1.83;;;1.00;;
7607;SDS011;3845;48.120;11.534;2022-09-09T15:04:40;2.93;;;1.10;;
7607;SDS011;3845;48.120;11.534;2022-09-09T15:07:05;1.00;;;0.80;;
7607;SDS011;3845;48.120;11.534;2022-09-09T15:09:31;2.23;;;1.70;;
7607;SDS011;3845;48.120;11.534;2022-09-09T15:11:56;3.13;;;2.40;;
7607;SDS011;3845;48.120;11.534;2022-09-09T15:14:22;3.70;;;2.43;;
7607;SDS011;3845;48.120;11.534;2022-09-09T15:16:47;1.97;;;1.50;;
7607;SDS011;3845;48.120;11.534;2022-09-09T15:19:12;2.47;;;1.73;;
7607;SDS011;3845;48.120;11.534;2022-09-09T15:21:38;1.60;;;1.30;;
7607;SDS011;3845;48.120;11.534;2022-09-09T15:24:03;2.20;;;1.67;;
7607;SDS011;3845;48.120;11.534;2022-09-09T15:26:29;2.27;;;1.60;;
7607;SDS011;3845;48.120;11.534;2022-09-09T15:28:55;2.90;;;2.27;;
7607;SDS011;3845;48.120;11.534;2022-09-09T15:31:25;3.17;;;1.80;;
7607;SDS011;3845;48.120;11.534;2022-09-09T15:36:28;5.13;;;3.60;;
7607;SDS011;3845;48.120;11.534;2022-09-09T15:38:56;3.43;;;2.80;;
7607;SDS011;3845;48.120;11.534;2022-09-09T15:41:22;3.43;;;2.47;;
7607;SDS011;3845;48.120;11.534;2022-09-09T15:43:52;3.40;;;2.10;;
7607;SDS011;3845;48.120;11.534;2022-09-09T15:48:55;3.33;;;1.70;;
7607;SDS011;3845;48.120;11.534;2022-09-09T15:51:22;1.37;;;1.20;;
7607;SDS011;3845;48.120;11.534;2022-09-09T15:53:48;2.03;;;1.30;;
7607;SDS011;3845;48.120;11.534;2022-09-09T15:56:16;1.47;;;1.10;;
7607;SDS011;3845;48.120;11.534;2022-09-09T15:58:41;1.67;;;1.20;;
7607;SDS011;3845;48.120;11.534;2022-09-09T16:01:08;1.97;;;1.10;;
7607;SDS011;3845;48.120;11.534;2022-09-09T16:03:34;3.37;;;1.50;;
7607;SDS011;3845;48.120;11.534;2022-09-09T16:06:00;3.30;;;2.10;;
7607;SDS011;3845;48.120;11.534;2022-09-09T16:08:31;2.67;;;2.10;;
7607;SDS011;3845;48.120;11.534;2022-09-09T16:11:03;2.23;;;1.70;;
7607;SDS011;3845;48.120;11.534;2022-09-09T16:13:34;1.70;;;1.40;;
7607;SDS011;3845;48.120;11.534;2022-09-09T16:16:01;3.70;;;3.07;;
7607;SDS011;3845;48.120;11.534;2022-09-09T16:18:26;3.47;;;2.70;;
7607;SDS011;3845;48.120;11.534;2022-09-09T16:20:58;5.03;;;4.07;;
7607;SDS011;3845;48.120;11.534;2022-09-09T16:23:23;4.83;;;3.80;;
7607;SDS011;3845;48.120;11.534;2022-09-09T16:25:53;3.40;;;3.00;;
7607;SDS011;3845;48.120;11.534;2022-09-09T16:28:19;2.80;;;2.50;;
7607;SDS011;3845;48.120;11.534;2022-09-09T16:30:44;2.00;;;1.67;;
7607;SDS011;3845;48.120;11.534;2022-09-09T16:33:10;2.30;;;1.43;;
7607;SDS011;3845;48.120;11.534;2022-09-09T16:35:38;6.37;;;5.17;;
7607;SDS011;3845;48.120;11.534;2022-09-09T16:38:03;4.10;;;3.10;;
7607;SDS011;3845;48.120;11.534;2022-09-09T16:40:29;3.77;;;2.80;;
7607;SDS011;3845;48.120;11.534;2022-09-09T16:42:55;3.07;;;2.23;;
7607;SDS011;3845;48.120;11.534;2022-09-09T16:45:20;2.80;;;1.73;;
7607;SDS011;3845;48.120;11.534;2022-09-09T16:47:46;2.60;;;1.80;;
7607;SDS011;3845;48.120;11.534;2022-09-09T16:50:13;2.23;;;1.60;;
7607;SDS011;3845;48.120;11.534;2022-09-09T16:52:39;1.67;;;1.43;;
7607;SDS011;3845;48.120;11.534;2022-09-09T16:55:04;1.70;;;1.60;;
7607;SDS011;3845;48.120;11.534;2022-09-09T16:57:30;2.10;;;1.60;;
7607;SDS011;3845;48.120;11.534;2022-09-09T16:59:55;2.13;;;1.43;;
7607;SDS011;3845;48.120;11.534;2022-09-09T17:02:24;1.90;;;1.50;;
7607;SDS011;3845;48.120;11.534;2022-09-09T17:04:49;2.07;;;1.30;;
7607;SDS011;3845;48.120;11.534;2022-09-09T17:07:15;2.33;;;1.50;;
7607;SDS011;3845;48.120;11.534;2022-09-09T17:09:40;10.97;;;9.20;;
7607;SDS011;3845;48.120;11.534;2022-09-09T17:12:06;8.43;;;7.20;;
7607;SDS011;3845;48.120;11.534;2022-09-09T17:14:31;8.87;;;7.97;;